sensor_id;sensor_type;location;lat;lon;timestamp;temperature;humidity
10062;DHT22;5070;52.382;5.270;2023-04-24T00:00:55;19.00;84.90
10062;DHT22;5070;52.382;5.270;2023-04-24T00:03:24;19.00;84.90
10062;DHT22;5070;52.382;5.270;2023-04-24T00:05:55;18.90;84.80
10062;DHT22;5070;52.382;5.270;2023-04-24T00:08:22;18.90;84.80
10062;DHT22;5070;52.382;5.270;2023-04-24T00:10:52;18.90;84.70
10062;DHT22;5070;52.382;5.270;2023-04-24T00:13:20;18.90;84.70
10062;DHT22;5070;52.382;5.270;2023-04-24T00:15:48;18.90;84.60
10062;DHT22;5070;52.382;5.270;2023-04-24T00:18:16;18.90;84.70
10062;DHT22;5070;52.382;5.270;2023-04-24T00:20:44;18.90;84.70
10062;DHT22;5070;52.382;5.270;2023-04-24T00:23:13;18.90;84.80
10062;DHT22;5070;52.382;5.270;2023-04-24T00:25:41;18.90;84.70
10062;DHT22;5070;52.382;5.270;2023-04-24T00:28:10;18.90;84.70
10062;DHT22;5070;52.382;5.270;2023-04-24T00:30:38;18.90;84.60
10062;DHT22;5070;52.382;5.270;2023-04-24T00:33:06;18.90;84.60
10062;DHT22;5070;52.382;5.270;2023-04-24T00:35:34;18.90;84.60
10062;DHT22;5070;52.382;5.270;2023-04-24T00:38:01;18.90;84.60
10062;DHT22;5070;52.382;5.270;2023-04-24T00:40:30;18.90;84.60
10062;DHT22;5070;52.382;5.270;2023-04-24T00:42:58;18.90;84.50
10062;DHT22;5070;52.382;5.270;2023-04-24T00:45:27;18.80;84.50
10062;DHT22;5070;52.382;5.270;2023-04-24T00:47:58;18.80;84.40
10062;DHT22;5070;52.382;5.270;2023-04-24T00:50:26;18.80;84.40
10062;DHT22;5070;52.382;5.270;2023-04-24T00:52:54;18.80;84.40
10062;DHT22;5070;52.382;5.270;2023-04-24T00:55:22;18.80;84.40
10062;DHT22;5070;52.382;5.270;2023-04-24T00:57:50;18.80;84.30
10062;DHT22;5070;52.382;5.270;2023-04-24T01:00:21;18.80;84.30
10062;DHT22;5070;52.382;5.270;2023-04-24T01:02:51;18.80;84.30
10062;DHT22;5070;52.382;5.270;2023-04-24T01:05:20;18.80;84.40
10062;DHT22;5070;52.382;5.270;2023-04-24T01:07:48;18.80;84.30
10062;DHT22;5070;52.382;5.270;2023-04-24T01:10:16;18.80;84.10
10062;DHT22;5070;52.382;5.270;2023-04-24T01:12:45;18.80;84.10
10062;DHT22;5070;52.382;5.270;2023-04-24T01:15:14;18.80;84.00
10062;DHT22;5070;52.382;5.270;2023-04-24T01:17:42;18.80;83.80
10062;DHT22;5070;52.382;5.270;2023-04-24T01:20:11;18.80;83.70
10062;DHT22;5070;52.382;5.270;2023-04-24T01:22:42;18.80;83.70
10062;DHT22;5070;52.382;5.270;2023-04-24T01:25:10;18.70;83.60
10062;DHT22;5070;52.382;5.270;2023-04-24T01:27:38;18.70;83.50
10062;DHT22;5070;52.382;5.270;2023-04-24T01:30:07;18.70;83.50
10062;DHT22;5070;52.382;5.270;2023-04-24T01:32:36;18.70;83.50
10062;DHT22;5070;52.382;5.270;2023-04-24T01:35:06;18.70;83.40
10062;DHT22;5070;52.382;5.270;2023-04-24T01:37:34;18.70;83.30
10062;DHT22;5070;52.382;5.270;2023-04-24T01:40:06;18.70;83.30
10062;DHT22;5070;52.382;5.270;2023-04-24T01:42:34;18.70;83.40
10062;DHT22;5070;52.382;5.270;2023-04-24T01:45:04;18.70;83.40
10062;DHT22;5070;52.382;5.270;2023-04-24T01:47:32;18.70;83.40
10062;DHT22;5070;52.382;5.270;2023-04-24T01:50:00;18.70;83.30
10062;DHT22;5070;52.382;5.270;2023-04-24T01:52:28;18.70;83.10
10062;DHT22;5070;52.382;5.270;2023-04-24T01:54:59;18.60;83.00
10062;DHT22;5070;52.382;5.270;2023-04-24T01:57:29;18.60;83.00
10062;DHT22;5070;52.382;5.270;2023-04-24T01:59:57;18.70;82.90
10062;DHT22;5070;52.382;5.270;2023-04-24T02:02:25;18.60;82.90
10062;DHT22;5070;52.382;5.270;2023-04-24T02:04:56;18.60;83.00
10062;DHT22;5070;52.382;5.270;2023-04-24T02:07:24;18.60;82.90
10062;DHT22;5070;52.382;5.270;2023-04-24T02:09:52;18.60;82.90
10062;DHT22;5070;52.382;5.270;2023-04-24T02:12:22;18.60;83.00
10062;DHT22;5070;52.382;5.270;2023-04-24T02:14:52;18.60;82.90
10062;DHT22;5070;52.382;5.270;2023-04-24T02:17:20;18.60;82.90
10062;DHT22;5070;52.382;5.270;2023-04-24T02:19:50;18.60;82.90
10062;DHT22;5070;52.382;5.270;2023-04-24T02:22:18;18.60;82.70
10062;DHT22;5070;52.382;5.270;2023-04-24T02:24:46;18.60;82.60
10062;DHT22;5070;52.382;5.270;2023-04-24T02:27:15;18.50;82.40
10062;DHT22;5070;52.382;5.270;2023-04-24T02:29:43;18.50;82.30
10062;DHT22;5070;52.382;5.270;2023-04-24T02:32:13;18.50;82.40
10062;DHT22;5070;52.382;5.270;2023-04-24T02:34:42;18.50;82.30
10062;DHT22;5070;52.382;5.270;2023-04-24T02:37:11;18.50;82.20
10062;DHT22;5070;52.382;5.270;2023-04-24T02:39:39;18.50;82.20
10062;DHT22;5070;52.382;5.270;2023-04-24T02:42:08;18.50;82.00
10062;DHT22;5070;52.382;5.270;2023-04-24T02:44:36;18.50;82.20
10062;DHT22;5070;52.382;5.270;2023-04-24T02:47:04;18.50;82.00
10062;DHT22;5070;52.382;5.270;2023-04-24T02:49:33;18.50;82.00
10062;DHT22;5070;52.382;5.270;2023-04-24T02:52:01;18.50;82.00
10062;DHT22;5070;52.382;5.270;2023-04-24T02:54:29;18.50;82.00
10062;DHT22;5070;52.382;5.270;2023-04-24T02:56:57;18.50;81.90
10062;DHT22;5070;52.382;5.270;2023-04-24T02:59:25;18.50;81.70
10062;DHT22;5070;52.382;5.270;2023-04-24T03:01:55;18.50;81.70
10062;DHT22;5070;52.382;5.270;2023-04-24T03:04:23;18.50;81.60
10062;DHT22;5070;52.382;5.270;2023-04-24T03:06:53;18.50;81.70
10062;DHT22;5070;52.382;5.270;2023-04-24T03:09:22;18.40;81.40
10062;DHT22;5070;52.382;5.270;2023-04-24T03:11:50;18.40;81.40
10062;DHT22;5070;52.382;5.270;2023-04-24T03:14:18;18.40;81.50
10062;DHT22;5070;52.382;5.270;2023-04-24T03:16:46;18.40;81.40
10062;DHT22;5070;52.382;5.270;2023-04-24T03:19:14;18.40;81.30
10062;DHT22;5070;52.382;5.270;2023-04-24T03:21:54;18.40;81.30
10062;DHT22;5070;52.382;5.270;2023-04-24T03:24:23;18.40;81.40
10062;DHT22;5070;52.382;5.270;2023-04-24T03:26:52;18.40;82.10
10062;DHT22;5070;52.382;5.270;2023-04-24T03:29:46;18.40;81.40
10062;DHT22;5070;52.382;5.270;2023-04-24T03:32:15;18.40;81.20
10062;DHT22;5070;52.382;5.270;2023-04-24T03:34:45;18.40;81.20
10062;DHT22;5070;52.382;5.270;2023-04-24T03:37:15;18.40;81.30
10062;DHT22;5070;52.382;5.270;2023-04-24T03:39:50;18.40;81.30
10062;DHT22;5070;52.382;5.270;2023-04-24T03:42:23;18.30;81.10
10062;DHT22;5070;52.382;5.270;2023-04-24T03:44:54;18.30;81.10
10062;DHT22;5070;52.382;5.270;2023-04-24T03:47:27;18.30;81.20
10062;DHT22;5070;52.382;5.270;2023-04-24T03:49:57;18.30;81.20
10062;DHT22;5070;52.382;5.270;2023-04-24T03:52:27;18.30;81.10
10062;DHT22;5070;52.382;5.270;2023-04-24T03:54:55;18.30;81.10
10062;DHT22;5070;52.382;5.270;2023-04-24T03:57:24;18.30;81.10
10062;DHT22;5070;52.382;5.270;2023-04-24T04:00:11;18.30;81.10
10062;DHT22;5070;52.382;5.270;2023-04-24T04:02:46;18.30;81.10
10062;DHT22;5070;52.382;5.270;2023-04-24T04:05:14;18.30;81.10
10062;DHT22;5070;52.382;5.270;2023-04-24T04:07:44;18.30;81.70
10062;DHT22;5070;52.382;5.270;2023-04-24T04:10:12;18.30;80.90
10062;DHT22;5070;52.382;5.270;2023-04-24T04:12:40;18.30;80.90
10062;DHT22;5070;52.382;5.270;2023-04-24T04:15:08;18.30;80.90
10062;DHT22;5070;52.382;5.270;2023-04-24T04:17:36;18.30;80.80
10062;DHT22;5070;52.382;5.270;2023-04-24T04:20:07;18.30;80.90
10062;DHT22;5070;52.382;5.270;2023-04-24T04:22:37;18.30;80.90
10062;DHT22;5070;52.382;5.270;2023-04-24T04:25:11;18.30;80.90
10062;DHT22;5070;52.382;5.270;2023-04-24T04:27:40;18.30;80.80
10062;DHT22;5070;52.382;5.270;2023-04-24T04:30:10;18.20;80.70
10062;DHT22;5070;52.382;5.270;2023-04-24T04:32:46;18.20;80.70
10062;DHT22;5070;52.382;5.270;2023-04-24T04:35:14;18.20;80.70
10062;DHT22;5070;52.382;5.270;2023-04-24T04:37:42;18.20;80.60
10062;DHT22;5070;52.382;5.270;2023-04-24T04:40:18;18.20;80.70
10062;DHT22;5070;52.382;5.270;2023-04-24T04:42:54;18.20;80.70
10062;DHT22;5070;52.382;5.270;2023-04-24T04:45:24;18.20;80.70
10062;DHT22;5070;52.382;5.270;2023-04-24T04:48:13;18.20;80.60
10062;DHT22;5070;52.382;5.270;2023-04-24T04:50:44;18.20;80.70
10062;DHT22;5070;52.382;5.270;2023-04-24T04:53:12;18.20;80.70
10062;DHT22;5070;52.382;5.270;2023-04-24T04:55:42;18.20;80.70
10062;DHT22;5070;52.382;5.270;2023-04-24T04:58:13;18.20;80.60
10062;DHT22;5070;52.382;5.270;2023-04-24T05:00:43;18.20;80.60
10062;DHT22;5070;52.382;5.270;2023-04-24T05:03:17;18.20;80.70
10062;DHT22;5070;52.382;5.270;2023-04-24T05:05:52;18.20;80.70
10062;DHT22;5070;52.382;5.270;2023-04-24T05:08:20;18.20;80.60
10062;DHT22;5070;52.382;5.270;2023-04-24T05:10:52;18.20;80.70
10062;DHT22;5070;52.382;5.270;2023-04-24T05:13:20;18.20;80.60
10062;DHT22;5070;52.382;5.270;2023-04-24T05:16:08;18.10;80.60
10062;DHT22;5070;52.382;5.270;2023-04-24T05:18:36;18.20;80.60
10062;DHT22;5070;52.382;5.270;2023-04-24T05:21:08;18.10;80.40
10062;DHT22;5070;52.382;5.270;2023-04-24T05:23:39;18.10;80.40
10062;DHT22;5070;52.382;5.270;2023-04-24T05:26:08;18.10;80.50
10062;DHT22;5070;52.382;5.270;2023-04-24T05:28:36;18.10;80.50
10062;DHT22;5070;52.382;5.270;2023-04-24T05:31:08;18.10;80.50
10062;DHT22;5070;52.382;5.270;2023-04-24T05:33:36;18.10;80.50
10062;DHT22;5070;52.382;5.270;2023-04-24T05:36:06;18.10;80.40
10062;DHT22;5070;52.382;5.270;2023-04-24T05:38:34;18.10;80.40
10062;DHT22;5070;52.382;5.270;2023-04-24T05:41:02;18.10;80.40
10062;DHT22;5070;52.382;5.270;2023-04-24T05:43:31;18.20;80.40
10062;DHT22;5070;52.382;5.270;2023-04-24T05:45:59;18.20;80.30
10062;DHT22;5070;52.382;5.270;2023-04-24T05:48:27;18.20;80.20
10062;DHT22;5070;52.382;5.270;2023-04-24T05:50:55;18.20;80.30
10062;DHT22;5070;52.382;5.270;2023-04-24T05:53:24;18.20;80.30
10062;DHT22;5070;52.382;5.270;2023-04-24T05:55:52;18.20;80.40
10062;DHT22;5070;52.382;5.270;2023-04-24T05:58:20;18.30;80.60
10062;DHT22;5070;52.382;5.270;2023-04-24T06:00:50;18.30;80.60
10062;DHT22;5070;52.382;5.270;2023-04-24T06:03:18;18.30;80.80
10062;DHT22;5070;52.382;5.270;2023-04-24T06:05:49;18.30;81.00
10062;DHT22;5070;52.382;5.270;2023-04-24T06:08:17;18.30;81.10
10062;DHT22;5070;52.382;5.270;2023-04-24T06:10:47;18.30;81.40
10062;DHT22;5070;52.382;5.270;2023-04-24T06:13:17;18.40;81.30
10062;DHT22;5070;52.382;5.270;2023-04-24T06:16:05;18.40;82.00
10062;DHT22;5070;52.382;5.270;2023-04-24T06:18:36;18.40;82.70
10062;DHT22;5070;52.382;5.270;2023-04-24T06:21:05;18.40;83.70
10062;DHT22;5070;52.382;5.270;2023-04-24T06:23:33;18.50;83.10
10062;DHT22;5070;52.382;5.270;2023-04-24T06:26:01;18.50;83.30
10062;DHT22;5070;52.382;5.270;2023-04-24T06:28:31;18.50;83.20
10062;DHT22;5070;52.382;5.270;2023-04-24T06:30:59;18.50;82.60
10062;DHT22;5070;52.382;5.270;2023-04-24T06:33:28;18.50;84.00
10062;DHT22;5070;52.382;5.270;2023-04-24T06:35:58;18.50;84.10
10062;DHT22;5070;52.382;5.270;2023-04-24T06:38:25;18.50;83.30
10062;DHT22;5070;52.382;5.270;2023-04-24T06:40:53;18.60;83.60
10062;DHT22;5070;52.382;5.270;2023-04-24T06:43:21;18.60;83.00
10062;DHT22;5070;52.382;5.270;2023-04-24T06:45:50;18.60;82.60
10062;DHT22;5070;52.382;5.270;2023-04-24T06:48:19;18.60;82.60
10062;DHT22;5070;52.382;5.270;2023-04-24T06:50:48;18.60;82.50
10062;DHT22;5070;52.382;5.270;2023-04-24T06:53:16;18.60;82.60
10062;DHT22;5070;52.382;5.270;2023-04-24T06:55:44;18.60;82.60
10062;DHT22;5070;52.382;5.270;2023-04-24T06:58:12;18.60;82.80
10062;DHT22;5070;52.382;5.270;2023-04-24T07:00:41;18.60;82.80
10062;DHT22;5070;52.382;5.270;2023-04-24T07:03:09;18.60;83.00
10062;DHT22;5070;52.382;5.270;2023-04-24T07:05:38;18.60;83.50
10062;DHT22;5070;52.382;5.270;2023-04-24T07:08:08;18.60;83.00
10062;DHT22;5070;52.382;5.270;2023-04-24T07:10:38;18.60;82.50
10062;DHT22;5070;52.382;5.270;2023-04-24T07:13:05;18.60;82.20
10062;DHT22;5070;52.382;5.270;2023-04-24T07:15:35;18.60;82.00
10062;DHT22;5070;52.382;5.270;2023-04-24T07:18:03;18.60;82.00
10062;DHT22;5070;52.382;5.270;2023-04-24T07:20:31;18.60;82.00
10062;DHT22;5070;52.382;5.270;2023-04-24T07:22:59;18.60;81.80
10062;DHT22;5070;52.382;5.270;2023-04-24T07:25:31;18.60;81.60
10062;DHT22;5070;52.382;5.270;2023-04-24T07:27:59;18.60;81.60
10062;DHT22;5070;52.382;5.270;2023-04-24T07:30:27;18.60;81.50
10062;DHT22;5070;52.382;5.270;2023-04-24T07:32:56;18.60;81.60
10062;DHT22;5070;52.382;5.270;2023-04-24T07:35:24;18.60;81.60
10062;DHT22;5070;52.382;5.270;2023-04-24T07:37:53;18.60;81.50
10062;DHT22;5070;52.382;5.270;2023-04-24T07:40:21;18.60;81.30
10062;DHT22;5070;52.382;5.270;2023-04-24T07:42:50;18.60;82.30
10062;DHT22;5070;52.382;5.270;2023-04-24T07:45:18;18.60;82.60
10062;DHT22;5070;52.382;5.270;2023-04-24T07:47:47;18.60;82.20
10062;DHT22;5070;52.382;5.270;2023-04-24T07:50:15;18.60;83.00
10062;DHT22;5070;52.382;5.270;2023-04-24T07:52:44;18.70;82.80
10062;DHT22;5070;52.382;5.270;2023-04-24T07:55:12;18.60;82.60
10062;DHT22;5070;52.382;5.270;2023-04-24T07:57:40;18.70;82.50
10062;DHT22;5070;52.382;5.270;2023-04-24T08:00:10;18.70;82.10
10062;DHT22;5070;52.382;5.270;2023-04-24T08:02:38;18.70;83.00
10062;DHT22;5070;52.382;5.270;2023-04-24T08:05:07;18.70;82.80
10062;DHT22;5070;52.382;5.270;2023-04-24T08:07:35;18.70;82.40
10062;DHT22;5070;52.382;5.270;2023-04-24T08:10:04;18.70;82.30
10062;DHT22;5070;52.382;5.270;2023-04-24T08:12:32;18.70;82.90
10062;DHT22;5070;52.382;5.270;2023-04-24T08:15:00;18.70;82.60
10062;DHT22;5070;52.382;5.270;2023-04-24T08:17:30;18.70;81.90
10062;DHT22;5070;52.382;5.270;2023-04-24T08:19:58;18.70;81.60
10062;DHT22;5070;52.382;5.270;2023-04-24T08:22:28;18.70;81.60
10062;DHT22;5070;52.382;5.270;2023-04-24T08:24:56;18.70;81.30
10062;DHT22;5070;52.382;5.270;2023-04-24T08:27:26;18.70;81.20
10062;DHT22;5070;52.382;5.270;2023-04-24T08:29:54;18.70;81.00
10062;DHT22;5070;52.382;5.270;2023-04-24T08:32:22;18.70;81.00
10062;DHT22;5070;52.382;5.270;2023-04-24T08:34:51;18.70;81.00
10062;DHT22;5070;52.382;5.270;2023-04-24T08:37:19;18.70;80.90
10062;DHT22;5070;52.382;5.270;2023-04-24T08:39:47;18.70;80.60
10062;DHT22;5070;52.382;5.270;2023-04-24T08:42:17;18.70;80.50
10062;DHT22;5070;52.382;5.270;2023-04-24T08:44:45;18.70;80.60
10062;DHT22;5070;52.382;5.270;2023-04-24T08:47:15;18.70;80.60
10062;DHT22;5070;52.382;5.270;2023-04-24T08:49:43;18.70;80.40
10062;DHT22;5070;52.382;5.270;2023-04-24T08:52:13;18.70;80.10
10062;DHT22;5070;52.382;5.270;2023-04-24T08:54:43;18.70;80.10
10062;DHT22;5070;52.382;5.270;2023-04-24T08:57:14;18.70;79.90
10062;DHT22;5070;52.382;5.270;2023-04-24T08:59:43;18.70;79.80
10062;DHT22;5070;52.382;5.270;2023-04-24T09:02:15;18.60;79.60
10062;DHT22;5070;52.382;5.270;2023-04-24T09:04:44;18.60;79.60
10062;DHT22;5070;52.382;5.270;2023-04-24T09:07:16;18.60;79.50
10062;DHT22;5070;52.382;5.270;2023-04-24T09:09:45;18.60;79.30
10062;DHT22;5070;52.382;5.270;2023-04-24T09:12:13;18.60;79.30
10062;DHT22;5070;52.382;5.270;2023-04-24T09:14:41;18.60;79.00
10062;DHT22;5070;52.382;5.270;2023-04-24T09:17:12;18.60;78.70
10062;DHT22;5070;52.382;5.270;2023-04-24T09:19:40;18.60;80.60
10062;DHT22;5070;52.382;5.270;2023-04-24T09:22:09;18.70;80.40
10062;DHT22;5070;52.382;5.270;2023-04-24T09:24:39;18.70;82.00
10062;DHT22;5070;52.382;5.270;2023-04-24T09:27:07;18.70;81.70
10062;DHT22;5070;52.382;5.270;2023-04-24T09:29:37;18.70;81.90
10062;DHT22;5070;52.382;5.270;2023-04-24T09:32:28;18.70;81.60
10062;DHT22;5070;52.382;5.270;2023-04-24T09:35:12;18.70;81.80
10062;DHT22;5070;52.382;5.270;2023-04-24T09:37:41;18.70;83.00
10062;DHT22;5070;52.382;5.270;2023-04-24T09:40:16;18.70;84.00
10062;DHT22;5070;52.382;5.270;2023-04-24T09:42:45;18.70;82.90
10062;DHT22;5070;52.382;5.270;2023-04-24T09:45:13;18.80;83.00
10062;DHT22;5070;52.382;5.270;2023-04-24T09:47:42;18.80;84.20
10062;DHT22;5070;52.382;5.270;2023-04-24T09:50:15;18.80;84.50
10062;DHT22;5070;52.382;5.270;2023-04-24T09:52:47;18.80;84.20
10062;DHT22;5070;52.382;5.270;2023-04-24T09:55:24;18.80;84.00
10062;DHT22;5070;52.382;5.270;2023-04-24T09:57:54;18.80;84.20
10062;DHT22;5070;52.382;5.270;2023-04-24T10:00:23;18.80;84.10
10062;DHT22;5070;52.382;5.270;2023-04-24T10:02:58;18.80;84.40
10062;DHT22;5070;52.382;5.270;2023-04-24T10:05:28;18.80;84.30
10062;DHT22;5070;52.382;5.270;2023-04-24T10:07:59;18.80;83.20
10062;DHT22;5070;52.382;5.270;2023-04-24T10:10:29;18.80;81.70
10062;DHT22;5070;52.382;5.270;2023-04-24T10:12:59;18.80;82.20
10062;DHT22;5070;52.382;5.270;2023-04-24T10:15:27;18.80;82.40
10062;DHT22;5070;52.382;5.270;2023-04-24T10:17:58;18.90;81.70
10062;DHT22;5070;52.382;5.270;2023-04-24T10:20:27;18.90;82.50
10062;DHT22;5070;52.382;5.270;2023-04-24T10:22:58;18.90;82.50
10062;DHT22;5070;52.382;5.270;2023-04-24T10:25:29;18.90;83.00
10062;DHT22;5070;52.382;5.270;2023-04-24T10:27:58;18.90;83.00
10062;DHT22;5070;52.382;5.270;2023-04-24T10:30:28;18.90;82.10
10062;DHT22;5070;52.382;5.270;2023-04-24T10:32:56;18.90;80.60
10062;DHT22;5070;52.382;5.270;2023-04-24T10:35:24;18.90;81.10
10062;DHT22;5070;52.382;5.270;2023-04-24T10:37:57;18.90;80.00
10062;DHT22;5070;52.382;5.270;2023-04-24T10:40:27;18.90;79.80
10062;DHT22;5070;52.382;5.270;2023-04-24T10:42:58;18.90;80.40
10062;DHT22;5070;52.382;5.270;2023-04-24T10:45:27;18.90;81.10
10062;DHT22;5070;52.382;5.270;2023-04-24T10:47:58;18.90;82.00
10062;DHT22;5070;52.382;5.270;2023-04-24T10:50:42;18.90;83.40
10062;DHT22;5070;52.382;5.270;2023-04-24T10:53:14;18.90;83.80
10062;DHT22;5070;52.382;5.270;2023-04-24T10:55:45;18.90;83.70
10062;DHT22;5070;52.382;5.270;2023-04-24T10:58:15;18.90;83.50
10062;DHT22;5070;52.382;5.270;2023-04-24T11:00:44;18.90;83.20
10062;DHT22;5070;52.382;5.270;2023-04-24T11:03:24;18.90;82.90
10062;DHT22;5070;52.382;5.270;2023-04-24T11:05:56;18.90;82.30
10062;DHT22;5070;52.382;5.270;2023-04-24T11:08:27;19.00;82.60
10062;DHT22;5070;52.382;5.270;2023-04-24T11:11:00;19.00;82.20
10062;DHT22;5070;52.382;5.270;2023-04-24T11:16:33;19.00;82.10
10062;DHT22;5070;52.382;5.270;2023-04-24T11:19:03;19.00;82.20
10062;DHT22;5070;52.382;5.270;2023-04-24T11:21:38;19.00;83.20
10062;DHT22;5070;52.382;5.270;2023-04-24T11:24:30;18.90;83.10
10062;DHT22;5070;52.382;5.270;2023-04-24T11:27:07;18.90;82.30
10062;DHT22;5070;52.382;5.270;2023-04-24T11:29:43;19.00;82.10
10062;DHT22;5070;52.382;5.270;2023-04-24T11:32:24;18.90;82.70
10062;DHT22;5070;52.382;5.270;2023-04-24T11:34:53;19.00;81.80
10062;DHT22;5070;52.382;5.270;2023-04-24T11:37:22;19.00;81.80
10062;DHT22;5070;52.382;5.270;2023-04-24T11:39:52;19.00;82.30
10062;DHT22;5070;52.382;5.270;2023-04-24T11:42:21;19.00;83.10
10062;DHT22;5070;52.382;5.270;2023-04-24T11:44:52;19.00;83.80
10062;DHT22;5070;52.382;5.270;2023-04-24T11:47:27;19.00;83.00
10062;DHT22;5070;52.382;5.270;2023-04-24T11:49:56;19.00;82.80
10062;DHT22;5070;52.382;5.270;2023-04-24T11:52:24;19.00;83.20
10062;DHT22;5070;52.382;5.270;2023-04-24T11:54:52;19.00;84.30
10062;DHT22;5070;52.382;5.270;2023-04-24T11:57:20;19.00;83.10
10062;DHT22;5070;52.382;5.270;2023-04-24T11:59:49;19.00;83.40
10062;DHT22;5070;52.382;5.270;2023-04-24T12:02:22;19.00;82.90
10062;DHT22;5070;52.382;5.270;2023-04-24T12:04:51;19.00;83.40
10062;DHT22;5070;52.382;5.270;2023-04-24T12:07:20;19.00;84.10
10062;DHT22;5070;52.382;5.270;2023-04-24T12:09:54;19.00;83.60
10062;DHT22;5070;52.382;5.270;2023-04-24T12:12:24;19.00;84.40
10062;DHT22;5070;52.382;5.270;2023-04-24T12:14:54;19.00;84.30
10062;DHT22;5070;52.382;5.270;2023-04-24T12:17:29;19.00;83.90
10062;DHT22;5070;52.382;5.270;2023-04-24T12:19:58;19.00;84.10
10062;DHT22;5070;52.382;5.270;2023-04-24T12:22:28;19.00;83.70
10062;DHT22;5070;52.382;5.270;2023-04-24T12:24:57;19.00;83.20
10062;DHT22;5070;52.382;5.270;2023-04-24T12:27:25;19.00;83.80
10062;DHT22;5070;52.382;5.270;2023-04-24T12:29:53;19.00;83.90
10062;DHT22;5070;52.382;5.270;2023-04-24T12:32:23;19.00;84.10
10062;DHT22;5070;52.382;5.270;2023-04-24T12:34:55;19.00;83.20
10062;DHT22;5070;52.382;5.270;2023-04-24T12:37:24;19.00;83.40
10062;DHT22;5070;52.382;5.270;2023-04-24T12:40:02;19.00;83.70
10062;DHT22;5070;52.382;5.270;2023-04-24T12:42:32;19.00;83.20
10062;DHT22;5070;52.382;5.270;2023-04-24T12:45:02;19.00;84.00
10062;DHT22;5070;52.382;5.270;2023-04-24T12:47:31;19.00;83.70
10062;DHT22;5070;52.382;5.270;2023-04-24T12:50:02;19.00;83.50
10062;DHT22;5070;52.382;5.270;2023-04-24T12:52:30;19.00;82.50
10062;DHT22;5070;52.382;5.270;2023-04-24T12:55:00;19.00;83.50
10062;DHT22;5070;52.382;5.270;2023-04-24T12:57:31;19.00;82.80
10062;DHT22;5070;52.382;5.270;2023-04-24T12:59:59;19.00;83.50
10062;DHT22;5070;52.382;5.270;2023-04-24T13:02:29;19.00;80.20
10062;DHT22;5070;52.382;5.270;2023-04-24T13:05:00;19.00;81.90
10062;DHT22;5070;52.382;5.270;2023-04-24T13:07:28;19.00;80.50
10062;DHT22;5070;52.382;5.270;2023-04-24T13:09:57;19.00;80.60
10062;DHT22;5070;52.382;5.270;2023-04-24T13:12:25;19.00;81.10
10062;DHT22;5070;52.382;5.270;2023-04-24T13:14:53;19.00;80.30
10062;DHT22;5070;52.382;5.270;2023-04-24T13:17:22;19.00;79.00
10062;DHT22;5070;52.382;5.270;2023-04-24T13:19:51;19.00;79.30
10062;DHT22;5070;52.382;5.270;2023-04-24T13:22:20;19.00;79.60
10062;DHT22;5070;52.382;5.270;2023-04-24T13:24:48;19.00;79.70
10062;DHT22;5070;52.382;5.270;2023-04-24T13:27:16;19.00;80.50
10062;DHT22;5070;52.382;5.270;2023-04-24T13:29:44;19.00;80.40
10062;DHT22;5070;52.382;5.270;2023-04-24T13:32:12;19.00;81.00
10062;DHT22;5070;52.382;5.270;2023-04-24T13:34:41;19.00;81.00
10062;DHT22;5070;52.382;5.270;2023-04-24T13:37:09;19.00;81.20
10062;DHT22;5070;52.382;5.270;2023-04-24T13:39:38;19.00;80.90
10062;DHT22;5070;52.382;5.270;2023-04-24T13:42:08;19.10;81.80
10062;DHT22;5070;52.382;5.270;2023-04-24T13:44:37;19.10;82.30
10062;DHT22;5070;52.382;5.270;2023-04-24T13:47:05;19.10;82.20
10062;DHT22;5070;52.382;5.270;2023-04-24T13:49:33;19.10;82.20
10062;DHT22;5070;52.382;5.270;2023-04-24T13:52:02;19.10;82.50
10062;DHT22;5070;52.382;5.270;2023-04-24T13:54:30;19.10;80.80
10062;DHT22;5070;52.382;5.270;2023-04-24T13:56:59;19.10;81.80
10062;DHT22;5070;52.382;5.270;2023-04-24T13:59:29;19.10;81.60
10062;DHT22;5070;52.382;5.270;2023-04-24T14:01:57;19.10;81.30
10062;DHT22;5070;52.382;5.270;2023-04-24T14:04:25;19.10;81.40
10062;DHT22;5070;52.382;5.270;2023-04-24T14:06:53;19.20;81.60
10062;DHT22;5070;52.382;5.270;2023-04-24T14:09:22;19.20;81.40
10062;DHT22;5070;52.382;5.270;2023-04-24T14:11:51;19.20;81.70
10062;DHT22;5070;52.382;5.270;2023-04-24T14:14:21;19.20;81.60
10062;DHT22;5070;52.382;5.270;2023-04-24T14:16:49;19.20;81.40
10062;DHT22;5070;52.382;5.270;2023-04-24T14:19:17;19.20;81.20
10062;DHT22;5070;52.382;5.270;2023-04-24T14:21:49;19.20;81.60
10062;DHT22;5070;52.382;5.270;2023-04-24T14:24:17;19.20;81.70
10062;DHT22;5070;52.382;5.270;2023-04-24T14:26:45;19.20;82.50
10062;DHT22;5070;52.382;5.270;2023-04-24T14:29:13;19.20;82.00
10062;DHT22;5070;52.382;5.270;2023-04-24T14:31:47;19.30;82.00
10062;DHT22;5070;52.382;5.270;2023-04-24T14:34:15;19.30;81.70
10062;DHT22;5070;52.382;5.270;2023-04-24T14:36:43;19.30;80.90
10062;DHT22;5070;52.382;5.270;2023-04-24T14:39:11;19.30;80.70
10062;DHT22;5070;52.382;5.270;2023-04-24T14:41:39;19.40;80.30
10062;DHT22;5070;52.382;5.270;2023-04-24T14:44:07;19.40;80.00
10062;DHT22;5070;52.382;5.270;2023-04-24T14:46:41;19.30;80.80
10062;DHT22;5070;52.382;5.270;2023-04-24T14:49:11;19.30;80.80
10062;DHT22;5070;52.382;5.270;2023-04-24T14:51:39;19.40;81.00
10062;DHT22;5070;52.382;5.270;2023-04-24T14:54:07;19.40;81.30
10062;DHT22;5070;52.382;5.270;2023-04-24T14:56:35;19.40;79.40
10062;DHT22;5070;52.382;5.270;2023-04-24T14:59:03;19.40;79.60
10062;DHT22;5070;52.382;5.270;2023-04-24T15:01:34;19.40;79.00
10062;DHT22;5070;52.382;5.270;2023-04-24T15:04:02;19.40;79.20
10062;DHT22;5070;52.382;5.270;2023-04-24T15:06:33;19.40;80.40
10062;DHT22;5070;52.382;5.270;2023-04-24T15:09:01;19.40;80.00
10062;DHT22;5070;52.382;5.270;2023-04-24T15:11:29;19.40;79.70
10062;DHT22;5070;52.382;5.270;2023-04-24T15:13:57;19.50;79.60
10062;DHT22;5070;52.382;5.270;2023-04-24T15:16:25;19.50;79.70
10062;DHT22;5070;52.382;5.270;2023-04-24T15:18:53;19.50;79.60
10062;DHT22;5070;52.382;5.270;2023-04-24T15:21:21;19.50;79.90
10062;DHT22;5070;52.382;5.270;2023-04-24T15:23:50;19.50;79.70
10062;DHT22;5070;52.382;5.270;2023-04-24T15:26:18;19.50;79.70
10062;DHT22;5070;52.382;5.270;2023-04-24T15:28:46;19.50;79.60
10062;DHT22;5070;52.382;5.270;2023-04-24T15:31:14;19.50;79.90
10062;DHT22;5070;52.382;5.270;2023-04-24T15:33:42;19.50;79.90
10062;DHT22;5070;52.382;5.270;2023-04-24T15:36:18;19.50;79.90
10062;DHT22;5070;52.382;5.270;2023-04-24T15:38:45;19.60;79.50
10062;DHT22;5070;52.382;5.270;2023-04-24T15:41:15;19.60;79.80
10062;DHT22;5070;52.382;5.270;2023-04-24T15:43:43;19.60;79.70
10062;DHT22;5070;52.382;5.270;2023-04-24T15:46:11;19.60;80.00
10062;DHT22;5070;52.382;5.270;2023-04-24T15:48:39;19.60;79.90
10062;DHT22;5070;52.382;5.270;2023-04-24T15:51:09;19.60;80.20
10062;DHT22;5070;52.382;5.270;2023-04-24T15:53:37;19.60;79.90
10062;DHT22;5070;52.382;5.270;2023-04-24T15:56:05;19.60;79.80
10062;DHT22;5070;52.382;5.270;2023-04-24T15:58:34;19.60;79.80
10062;DHT22;5070;52.382;5.270;2023-04-24T16:01:02;19.60;80.30
10062;DHT22;5070;52.382;5.270;2023-04-24T16:03:30;19.60;80.30